createdAt,value
2022-08-01T00:03:13.835Z,80.46
2022-08-01T00:08:14.031Z,80.44
2022-08-01T00:13:13.905Z,80.51
2022-08-01T00:18:13.847Z,80.57
2022-08-01T00:23:13.880Z,80.58
2022-08-01T00:28:14.115Z,80.59
2022-08-01T00:33:13.838Z,80.58
2022-08-01T00:38:13.870Z,80.64
2022-08-01T00:43:13.846Z,80.67
2022-08-01T00:48:13.954Z,80.80
2022-08-01T00:53:18.993Z,80.81
2022-08-01T00:58:15.890Z,81.01
2022-08-01T01:03:17.966Z,80.98
2022-08-01T01:08:17.934Z,80.97
2022-08-01T01:13:17.931Z,80.93
2022-08-01T01:18:17.961Z,80.94
2022-08-01T01:23:17.888Z,80.99
2022-08-01T01:28:17.878Z,81.28
2022-08-01T01:33:17.958Z,81.20
2022-08-01T01:38:18.138Z,81.17
2022-08-01T01:43:17.935Z,81.19
2022-08-01T01:48:18.268Z,81.26
2022-08-01T01:53:18.018Z,81.44
2022-08-01T01:58:17.946Z,81.45
2022-08-01T02:03:17.973Z,81.48
2022-08-01T02:08:17.953Z,81.54
2022-08-01T02:13:17.962Z,81.63
2022-08-01T02:18:19.924Z,81.63
2022-08-01T02:23:22.188Z,81.61
2022-08-01T02:28:23.558Z,81.74
2022-08-01T02:33:24.929Z,81.72
2022-08-01T02:38:24.984Z,81.64
2022-08-01T02:43:24.973Z,81.64
2022-08-01T02:48:25.629Z,81.64
2022-08-01T02:53:39.033Z,81.61
2022-08-01T02:58:29.020Z,81.56
2022-08-01T03:03:29.062Z,81.54
2022-08-01T03:08:29.176Z,81.61
2022-08-01T03:13:29.026Z,81.54
2022-08-01T03:18:29.066Z,81.50
2022-08-01T03:23:29.141Z,81.51
2022-08-01T03:28:31.142Z,81.48
2022-08-01T03:33:31.013Z,81.43
2022-08-01T03:38:31.104Z,81.41
2022-08-01T03:43:31.081Z,81.39
2022-08-01T03:48:31.628Z,81.43
2022-08-01T03:53:32.068Z,81.46
2022-08-01T03:58:32.099Z,81.47
2022-08-01T04:03:32.038Z,81.46
2022-08-01T04:08:32.105Z,81.44
2022-08-01T04:13:37.002Z,81.49
2022-08-01T04:18:34.090Z,81.46
2022-08-01T04:23:34.028Z,81.46
2022-08-01T04:28:34.055Z,81.39
2022-08-01T04:33:35.987Z,81.37
2022-08-01T04:38:37.232Z,81.41
2022-08-01T04:43:37.028Z,81.47
2022-08-01T04:48:37.073Z,81.39
2022-08-01T04:53:37.106Z,81.39
2022-08-01T04:58:37.032Z,81.23
2022-08-01T05:03:39.004Z,80.94
2022-08-01T05:08:39.124Z,80.73
2022-08-01T05:13:39.054Z,80.48
2022-08-01T05:18:39.135Z,80.55
2022-08-01T05:23:42.829Z,80.50
2022-08-01T05:28:42.072Z,80.45
2022-08-01T05:33:42.103Z,80.24
2022-08-01T05:38:42.379Z,80.14
2022-08-01T05:43:42.071Z,80.27
2022-08-01T05:48:42.118Z,79.82
2022-08-01T05:53:42.142Z,79.41
2022-08-01T05:58:42.244Z,79.30
2022-08-01T06:03:42.177Z,78.62
2022-08-01T06:08:42.286Z,77.58
2022-08-01T06:13:48.091Z,76.69
2022-08-01T06:18:44.084Z,74.94
2022-08-01T06:23:44.104Z,75.65
2022-08-01T06:28:44.131Z,76.21
2022-08-01T06:33:44.166Z,75.31
2022-08-01T06:38:44.496Z,74.22
2022-08-01T06:43:44.136Z,74.45
2022-08-01T06:48:44.167Z,71.02
2022-08-01T06:53:44.247Z,65.79
2022-08-01T06:58:45.155Z,61.81
2022-08-01T07:03:54.664Z,65.17
2022-08-01T07:08:47.235Z,65.89
2022-08-01T07:13:47.207Z,61.95
2022-08-01T07:18:47.137Z,62.48
2022-08-01T07:23:47.182Z,59.83
2022-08-01T07:28:47.216Z,61.45
2022-08-01T07:33:47.739Z,61.71
2022-08-01T07:38:49.450Z,60.81
2022-08-01T07:43:57.245Z,60.22
2022-08-01T07:48:54.194Z,60.21
2022-08-01T07:53:54.246Z,60.66
2022-08-01T07:58:54.316Z,60.83
2022-08-01T08:03:54.231Z,57.94
2022-08-01T08:08:54.515Z,53.71
2022-08-01T08:13:54.308Z,54.04
2022-08-01T08:18:54.187Z,53.88
2022-08-01T08:24:12.511Z,54.05
2022-08-01T08:29:12.326Z,52.67
2022-08-01T08:34:12.264Z,45.94
2022-08-01T08:39:12.345Z,48.78
2022-08-01T08:44:12.223Z,41.67
2022-08-01T08:49:12.364Z,35.34
2022-08-01T08:54:13.104Z,30.70
2022-08-01T08:59:13.768Z,34.51
2022-08-01T09:04:13.291Z,38.93
2022-08-01T09:09:13.391Z,38.93
2022-08-01T09:14:14.717Z,38.63
2022-08-01T09:19:16.245Z,33.42
2022-08-01T09:24:18.115Z,28.26
2022-08-01T09:29:37.331Z,30.51
2022-08-01T09:34:22.322Z,26.12
2022-08-01T09:39:25.352Z,23.31
2022-08-01T09:44:27.409Z,27.12
2022-08-01T09:49:28.264Z,29.22
2022-08-01T09:54:30.342Z,28.39
2022-08-01T09:59:41.008Z,31.89
2022-08-01T10:04:32.374Z,32.82
2022-08-01T10:09:35.925Z,32.56
2022-08-01T10:14:36.347Z,30.32
2022-08-01T10:19:37.375Z,31.83
2022-08-01T10:24:37.418Z,32.37
2022-08-01T10:29:46.753Z,32.47
2022-08-01T10:34:45.070Z,32.60
2022-08-01T10:39:43.339Z,32.40
2022-08-01T10:44:45.292Z,33.39
2022-08-01T10:49:45.385Z,35.78
2022-08-01T10:54:52.314Z,37.92
2022-08-01T10:59:59.090Z,38.47
2022-08-01T11:04:49.382Z,38.90
2022-08-01T11:09:51.988Z,39.05
2022-08-01T11:14:55.881Z,39.55
2022-08-01T11:19:54.392Z,39.58
2022-08-01T11:24:57.217Z,40.19
2022-08-01T11:29:58.460Z,40.43
2022-08-01T11:35:00.447Z,40.14
2022-08-01T11:40:00.506Z,40.82
2022-08-01T11:45:01.453Z,41.20
2022-08-01T11:50:01.986Z,41.18
2022-08-01T11:55:01.456Z,42.12
2022-08-01T12:00:04.085Z,42.50
2022-08-01T12:05:03.422Z,42.37
2022-08-01T12:10:05.512Z,43.07
2022-08-01T12:15:05.483Z,42.57
2022-08-01T12:20:06.504Z,42.69
2022-08-01T12:25:06.486Z,42.72
2022-08-01T12:30:06.486Z,42.51
2022-08-01T12:35:06.684Z,42.07
2022-08-01T12:40:06.434Z,41.56
2022-08-01T12:45:06.480Z,42.30
2022-08-01T12:50:06.530Z,44.54
2022-08-01T12:55:07.894Z,45.55
2022-08-01T13:00:08.710Z,45.69
2022-08-01T13:05:08.970Z,45.81
2022-08-01T13:10:08.451Z,45.35
2022-08-01T13:15:08.666Z,44.90
2022-08-01T13:20:08.533Z,44.84
2022-08-01T13:25:08.611Z,44.52
2022-08-01T13:30:08.530Z,44.43
2022-08-01T13:35:10.978Z,44.47
2022-08-01T13:40:10.566Z,43.97
2022-08-01T13:45:14.125Z,43.64
2022-08-01T13:50:13.598Z,43.94
2022-08-01T13:55:13.638Z,43.91
2022-08-01T14:00:14.181Z,44.26
2022-08-01T14:05:14.522Z,44.09
2022-08-01T14:10:19.505Z,44.39
2022-08-01T14:15:36.927Z,44.23
2022-08-01T14:20:20.295Z,43.65
2022-08-01T14:25:57.679Z,44.13
2022-08-01T14:30:22.644Z,44.62
2022-08-01T14:35:22.523Z,44.79
2022-08-01T14:40:22.546Z,44.75
2022-08-01T14:45:22.617Z,44.65
2022-08-01T14:50:24.227Z,44.90
2022-08-01T14:55:26.545Z,45.31
2022-08-01T15:00:26.662Z,45.60
2022-08-01T15:05:27.373Z,45.73
2022-08-01T15:10:27.845Z,45.92
2022-08-01T15:15:27.649Z,46.35
2022-08-01T15:20:27.654Z,46.55
2022-08-01T15:25:41.429Z,47.15
2022-08-01T15:30:29.603Z,47.35
2022-08-01T15:35:29.735Z,47.26
2022-08-01T15:40:29.703Z,47.62
2022-08-01T15:50:31.846Z,48.05
2022-08-01T15:55:31.728Z,48.42
2022-08-01T16:00:33.055Z,48.97
2022-08-01T16:05:38.243Z,49.33
2022-08-01T16:10:37.636Z,49.76
2022-08-01T16:15:38.571Z,49.85
2022-08-01T16:20:44.555Z,49.89
2022-08-01T16:25:40.767Z,50.10
2022-08-01T16:30:50.216Z,50.57
2022-08-01T16:35:44.280Z,51.12
2022-08-01T16:40:47.657Z,51.43
2022-08-01T16:45:47.710Z,51.75
2022-08-01T16:50:48.932Z,52.11
2022-08-01T16:55:50.594Z,52.22
2022-08-01T17:00:56.782Z,52.18
2022-08-01T17:05:54.762Z,52.33
2022-08-01T17:10:54.750Z,52.56
2022-08-01T17:15:54.679Z,52.55
2022-08-01T17:20:54.721Z,53.02
2022-08-01T17:25:54.804Z,53.78
2022-08-01T17:30:54.990Z,54.29
2022-08-01T17:35:54.863Z,54.81
2022-08-01T17:40:54.767Z,55.23
2022-08-01T17:45:56.734Z,55.73
2022-08-01T17:50:56.763Z,55.99
2022-08-01T17:55:58.209Z,56.13
2022-08-01T18:00:58.482Z,56.62
2022-08-01T18:05:58.895Z,57.18
2022-08-01T18:10:59.335Z,57.37
2022-08-01T18:15:59.886Z,57.94
2022-08-01T18:20:59.860Z,58.08
2022-08-01T18:26:01.791Z,58.56
2022-08-01T18:31:01.874Z,59.19
2022-08-01T18:36:04.198Z,59.17
2022-08-01T18:41:05.072Z,59.42
2022-08-01T18:46:05.994Z,59.63
2022-08-01T18:51:11.614Z,60.08
2022-08-01T18:56:11.649Z,60.35
2022-08-01T19:01:13.153Z,60.53
2022-08-01T19:06:13.963Z,60.71
2022-08-01T19:11:14.436Z,60.90
2022-08-01T19:16:16.058Z,61.12
2022-08-01T19:21:15.833Z,61.50
2022-08-01T19:26:15.988Z,61.95
2022-08-01T19:31:16.002Z,62.81
2022-08-01T19:36:15.806Z,63.28
2022-08-01T19:41:15.944Z,63.68
2022-08-01T19:46:17.269Z,64.28
2022-08-01T19:51:17.906Z,65.02
2022-08-01T19:56:17.904Z,65.53
2022-08-01T20:01:18.915Z,66.12
2022-08-01T20:06:18.951Z,66.12
2022-08-01T20:11:22.020Z,66.79
2022-08-01T20:16:21.979Z,66.98
2022-08-01T20:21:21.914Z,68.01
2022-08-01T20:26:21.979Z,68.31
2022-08-01T20:31:21.879Z,68.82
2022-08-01T20:36:25.033Z,69.13
2022-08-01T20:41:25.965Z,69.41
2022-08-01T20:46:26.012Z,69.65
2022-08-01T20:51:25.925Z,70.32
2022-08-01T20:56:26.302Z,70.75
2022-08-01T21:01:25.889Z,71.16
2022-08-01T21:06:25.959Z,71.30
2022-08-01T21:11:26.062Z,71.67
2022-08-01T21:16:25.891Z,71.94
2022-08-01T21:21:27.022Z,72.08
2022-08-01T21:26:26.981Z,72.32
2022-08-01T21:31:26.923Z,72.77
2022-08-01T21:36:29.306Z,73.18
2022-08-01T21:41:56.500Z,73.12
2022-08-01T21:46:32.893Z,73.30
2022-08-01T21:51:33.252Z,73.58
2022-08-01T21:56:32.926Z,73.76
2022-08-01T22:01:33.245Z,73.83
2022-08-01T22:06:36.088Z,74.75
2022-08-01T22:11:36.010Z,75.21
2022-08-01T22:16:37.834Z,75.39
2022-08-01T22:21:38.024Z,75.81
2022-08-01T22:26:37.945Z,75.76
2022-08-01T22:31:38.253Z,76.11
2022-08-01T22:36:38.136Z,76.67
2022-08-01T22:42:01.312Z,76.62
2022-08-01T22:46:40.307Z,77.08
2022-08-01T22:51:39.984Z,77.05
2022-08-01T22:56:42.938Z,77.17
2022-08-01T23:01:47.845Z,77.25
2022-08-01T23:06:44.951Z,77.11
2022-08-01T23:11:45.048Z,77.01
2022-08-01T23:16:44.945Z,77.08
2022-08-01T23:21:45.006Z,77.50
2022-08-01T23:26:45.052Z,77.76
2022-08-01T23:32:03.163Z,77.74
2022-08-01T23:36:46.951Z,78.20
2022-08-01T23:41:58.395Z,78.38
2022-08-01T23:46:49.266Z,78.24
2022-08-01T23:51:49.003Z,78.47
2022-08-01T23:56:49.044Z,78.77
